createdAt,value
2022-12-18T00:01:32.612Z,29.75
2022-12-18T00:04:01.650Z,27.75
2022-12-18T00:06:30.645Z,28.42
2022-12-18T00:08:59.501Z,28.90
2022-12-18T00:11:30.597Z,27.90
2022-12-18T00:14:00.891Z,28.17
2022-12-18T00:16:31.228Z,29.75
2022-12-18T00:18:59.225Z,27.30
2022-12-18T00:21:28.111Z,27.23
2022-12-18T00:23:55.622Z,26.65
2022-12-18T00:26:30.933Z,26.17
2022-12-18T00:29:07.621Z,26.20
2022-12-18T00:31:35.234Z,25.75
2022-12-18T00:34:03.437Z,25.25
2022-12-18T00:36:35.283Z,25.38
2022-12-18T00:39:05.530Z,25.08
2022-12-18T00:41:52.266Z,25.60
2022-12-18T00:44:20.312Z,25.50
2022-12-18T00:46:48.966Z,24.15
2022-12-18T00:49:19.960Z,23.48
2022-12-18T00:51:48.065Z,24.15
2022-12-18T00:54:16.334Z,25.15
2022-12-18T00:56:49.476Z,25.23
2022-12-18T00:59:19.071Z,24.35
2022-12-18T01:01:47.852Z,25.63
2022-12-18T01:04:15.202Z,26.30
2022-12-18T01:06:46.220Z,25.08
2022-12-18T01:09:13.409Z,25.10
2022-12-18T01:11:40.973Z,26.08
2022-12-18T01:14:08.252Z,24.98
2022-12-18T01:16:36.785Z,24.83
2022-12-18T01:19:05.397Z,23.52
2022-12-18T01:21:32.535Z,24.15
2022-12-18T01:24:04.975Z,23.48
2022-12-18T01:26:32.113Z,23.17
2022-12-18T01:28:59.603Z,23.88
2022-12-18T01:31:33.260Z,23.08
2022-12-18T01:34:09.642Z,22.08
2022-12-18T01:36:39.984Z,20.52
2022-12-18T01:39:13.769Z,21.38
2022-12-18T01:42:02.309Z,22.33
2022-12-18T01:44:59.691Z,20.55
2022-12-18T01:47:31.970Z,21.13
2022-12-18T01:50:07.394Z,21.58
2022-12-18T01:52:37.008Z,20.90
2022-12-18T01:55:07.013Z,20.45
2022-12-18T01:57:35.289Z,20.00
2022-12-18T02:00:13.270Z,20.13
2022-12-18T02:02:45.192Z,19.13
2022-12-18T02:05:20.126Z,19.55
2022-12-18T02:08:35.401Z,20.23
2022-12-18T02:11:22.384Z,18.10
2022-12-18T02:14:07.174Z,18.00
2022-12-18T02:20:06.988Z,16.48
2022-12-18T02:22:53.124Z,17.92
2022-12-18T02:26:02.594Z,18.17
2022-12-18T02:28:36.057Z,19.52
2022-12-18T02:31:14.997Z,17.85
2022-12-18T02:33:46.279Z,18.17
2022-12-18T02:36:17.548Z,18.27
2022-12-18T02:38:48.065Z,18.60
2022-12-18T02:41:18.923Z,17.77
2022-12-18T02:43:57.608Z,18.15
2022-12-18T02:46:37.351Z,17.15
2022-12-18T02:49:42.959Z,17.77
2022-12-18T02:52:55.763Z,17.58
2022-12-18T02:56:06.620Z,18.02
2022-12-18T02:58:55.619Z,17.25
2022-12-18T03:01:42.897Z,16.92
2022-12-18T03:04:28.518Z,17.13
2022-12-18T03:07:04.257Z,17.05
2022-12-18T03:09:42.092Z,16.92
2022-12-18T03:12:35.449Z,16.00
2022-12-18T03:15:18.105Z,16.63
2022-12-18T03:18:02.845Z,16.60
2022-12-18T03:20:35.188Z,17.17
2022-12-18T03:23:15.470Z,16.33
2022-12-18T03:25:49.924Z,17.52
2022-12-18T03:28:22.903Z,17.42
2022-12-18T03:31:01.794Z,16.95
2022-12-18T03:33:45.063Z,17.20
2022-12-18T03:36:12.648Z,16.63
2022-12-18T03:38:39.963Z,15.85
2022-12-18T03:41:31.423Z,16.75
2022-12-18T03:44:27.279Z,17.10
2022-12-18T03:47:28.774Z,15.88
2022-12-18T03:50:37.375Z,16.10
2022-12-18T03:53:37.716Z,14.90
2022-12-18T03:56:07.529Z,15.25
2022-12-18T03:58:43.149Z,14.20
2022-12-18T04:01:21.932Z,15.70
2022-12-18T04:03:51.807Z,14.50
2022-12-18T04:06:21.963Z,15.02
2022-12-18T04:08:49.663Z,14.50
2022-12-18T04:11:21.325Z,15.45
2022-12-18T04:13:50.187Z,14.38
2022-12-18T04:16:22.501Z,13.98
2022-12-18T04:18:53.933Z,14.55
2022-12-18T04:21:22.426Z,14.40
2022-12-18T04:23:50.444Z,13.63
2022-12-18T04:26:20.461Z,15.32
2022-12-18T04:29:06.106Z,14.30
2022-12-18T04:31:33.318Z,14.95
2022-12-18T04:34:01.147Z,15.32
2022-12-18T04:36:29.676Z,15.45
2022-12-18T04:38:57.058Z,14.90
2022-12-18T04:41:24.263Z,15.55
2022-12-18T04:43:53.324Z,14.60
2022-12-18T04:46:20.505Z,14.85
2022-12-18T04:48:48.003Z,14.75
2022-12-18T04:51:15.468Z,15.35
2022-12-18T04:53:43.025Z,15.45
2022-12-18T04:56:15.043Z,14.25
2022-12-18T04:58:44.790Z,14.32
2022-12-18T05:01:14.433Z,14.57
2022-12-18T05:03:42.389Z,14.88
2022-12-18T05:06:10.453Z,15.15
2022-12-18T05:08:37.982Z,15.45
2022-12-18T05:11:16.656Z,16.20
2022-12-18T05:13:46.162Z,15.20
2022-12-18T05:16:15.036Z,15.50
2022-12-18T05:18:43.133Z,15.02
2022-12-18T05:21:11.203Z,15.20
2022-12-18T05:23:38.493Z,14.90
2022-12-18T05:26:08.936Z,15.43
2022-12-18T05:28:37.568Z,14.77
2022-12-18T05:31:06.316Z,14.63
2022-12-18T05:33:35.875Z,14.27
2022-12-18T05:36:08.131Z,15.45
2022-12-18T05:38:38.764Z,15.90
2022-12-18T05:41:11.827Z,15.85
2022-12-18T05:43:42.839Z,16.50
2022-12-18T05:46:16.307Z,15.82
2022-12-18T05:48:44.184Z,15.32
2022-12-18T05:51:16.485Z,15.60
2022-12-18T05:53:44.423Z,15.13
2022-12-18T05:56:18.614Z,15.27
2022-12-18T05:58:46.210Z,15.52
2022-12-18T06:01:27.401Z,15.25
2022-12-18T06:03:55.780Z,16.38
2022-12-18T06:06:28.591Z,16.00
2022-12-18T06:08:57.529Z,14.85
2022-12-18T06:11:27.428Z,14.68
2022-12-18T06:13:59.024Z,15.68
2022-12-18T06:16:28.829Z,15.32
2022-12-18T06:19:01.054Z,15.45
2022-12-18T06:21:29.709Z,16.00
2022-12-18T06:23:57.369Z,15.30
2022-12-18T06:26:28.246Z,14.98
2022-12-18T06:28:57.810Z,15.48
2022-12-18T06:31:26.986Z,14.75
2022-12-18T06:33:54.411Z,14.38
2022-12-18T06:36:23.166Z,14.68
2022-12-18T06:38:50.785Z,14.90
2022-12-18T06:41:21.434Z,14.90
2022-12-18T06:43:48.557Z,16.33
2022-12-18T06:46:15.704Z,15.75
2022-12-18T06:48:44.087Z,15.07
2022-12-18T06:51:11.222Z,15.32
2022-12-18T06:53:38.643Z,15.27
2022-12-18T06:56:10.516Z,14.90
2022-12-18T06:58:40.031Z,14.10
2022-12-18T07:01:11.542Z,13.85
2022-12-18T07:03:41.908Z,14.65
2022-12-18T07:06:20.370Z,14.30
2022-12-18T07:08:49.885Z,14.75
2022-12-18T07:11:18.762Z,14.57
2022-12-18T07:13:47.519Z,14.98
2022-12-18T07:16:25.204Z,14.75
2022-12-18T07:18:56.078Z,15.00
2022-12-18T07:21:25.362Z,13.38
2022-12-18T07:23:52.815Z,14.30
2022-12-18T07:26:22.029Z,15.00
2022-12-18T07:28:49.485Z,14.07
2022-12-18T07:31:21.615Z,15.18
2022-12-18T07:33:50.334Z,14.68
2022-12-18T07:36:17.777Z,14.43
2022-12-18T07:38:49.312Z,14.63
2022-12-18T07:41:19.759Z,14.35
2022-12-18T07:43:47.493Z,14.00
2022-12-18T07:46:16.727Z,14.80
2022-12-18T07:48:46.255Z,14.88
2022-12-18T07:51:18.614Z,14.32
2022-12-18T07:53:46.051Z,14.80
2022-12-18T07:56:30.359Z,14.65
2022-12-18T07:59:00.076Z,14.75
2022-12-18T08:01:28.301Z,13.80
2022-12-18T08:03:55.636Z,14.40
2022-12-18T08:06:24.303Z,15.23
2022-12-18T08:08:55.541Z,14.45
2022-12-18T08:11:26.099Z,14.52
2022-12-18T08:13:54.157Z,13.68
2022-12-18T08:16:22.960Z,14.13
2022-12-18T08:18:54.179Z,13.43
2022-12-18T08:21:25.862Z,13.63
2022-12-18T08:23:55.669Z,13.82
2022-12-18T08:26:25.145Z,13.93
2022-12-18T08:28:52.501Z,13.40
2022-12-18T08:31:20.263Z,13.80
2022-12-18T08:33:51.991Z,13.48
2022-12-18T08:36:20.496Z,13.60
2022-12-18T08:38:48.273Z,15.13
2022-12-18T08:41:18.974Z,13.50
2022-12-18T08:44:05.134Z,13.00
2022-12-18T08:46:40.774Z,13.55
2022-12-18T08:49:10.390Z,13.15
2022-12-18T08:51:38.894Z,12.35
2022-12-18T08:54:07.340Z,12.40
2022-12-18T08:56:35.233Z,11.60
2022-12-18T08:59:02.437Z,12.52
2022-12-18T09:01:29.623Z,11.93
2022-12-18T09:03:56.934Z,12.25
2022-12-18T09:06:24.592Z,12.18
2022-12-18T09:08:51.632Z,11.63
2022-12-18T09:11:26.324Z,10.75
2022-12-18T09:13:55.227Z,10.93
2022-12-18T09:16:30.129Z,11.00
2022-12-18T09:19:00.682Z,10.18
2022-12-18T09:21:37.509Z,9.88
2022-12-18T09:24:08.870Z,10.38
2022-12-18T09:26:37.413Z,10.90
2022-12-18T09:29:05.581Z,10.55
2022-12-18T09:31:32.630Z,11.15
2022-12-18T09:34:01.703Z,10.45
2022-12-18T09:36:28.828Z,11.80
2022-12-18T09:38:55.900Z,11.30
2022-12-18T09:41:54.645Z,10.32
2022-12-18T09:44:37.766Z,11.45
2022-12-18T09:47:26.664Z,11.27
2022-12-18T09:50:06.314Z,10.27
2022-12-18T09:52:49.232Z,10.73
2022-12-18T09:55:42.838Z,10.85
2022-12-18T09:58:11.151Z,11.20
2022-12-18T10:00:38.459Z,10.77
2022-12-18T10:03:15.603Z,10.00
2022-12-18T10:06:04.049Z,10.43
2022-12-18T10:09:17.836Z,10.95
2022-12-18T10:11:58.452Z,10.20
2022-12-18T10:14:41.150Z,10.00
2022-12-18T10:17:45.322Z,11.18
2022-12-18T10:20:48.742Z,11.18
2022-12-18T10:23:29.242Z,11.50
2022-12-18T10:26:05.956Z,15.40
2022-12-18T10:28:40.159Z,11.00
2022-12-18T10:33:35.906Z,11.07
2022-12-18T10:36:04.643Z,13.60
2022-12-18T10:38:33.806Z,16.63
2022-12-18T10:41:27.594Z,15.18
2022-12-18T10:44:23.906Z,10.80
2022-12-18T10:47:11.853Z,11.23
2022-12-18T10:49:50.709Z,11.02
2022-12-18T10:52:22.578Z,11.25
2022-12-18T10:54:59.174Z,11.02
2022-12-18T10:57:39.853Z,10.65
2022-12-18T11:00:28.668Z,10.85
2022-12-18T11:02:57.972Z,10.68
2022-12-18T11:05:34.466Z,10.82
2022-12-18T11:08:02.590Z,10.90
2022-12-18T11:10:38.643Z,11.50
2022-12-18T11:13:22.966Z,10.98
2022-12-18T11:15:51.206Z,11.07
2022-12-18T11:18:30.914Z,11.20
2022-12-18T11:21:09.771Z,11.07
2022-12-18T11:23:49.674Z,10.07
2022-12-18T11:26:17.249Z,10.70
2022-12-18T11:29:12.106Z,10.45
2022-12-18T11:31:39.319Z,9.82
2022-12-18T11:34:32.147Z,10.15
2022-12-18T11:37:04.010Z,10.63
2022-12-18T11:39:46.037Z,10.27
2022-12-18T11:42:45.710Z,10.02
2022-12-18T11:45:13.845Z,10.43
2022-12-18T11:48:25.606Z,11.10
2022-12-18T11:51:04.019Z,11.25
2022-12-18T11:53:31.360Z,10.35
2022-12-18T11:56:40.332Z,11.20
2022-12-18T11:59:33.851Z,46.58
2022-12-18T12:02:25.717Z,16.00
2022-12-18T12:05:52.952Z,11.48
2022-12-18T12:09:15.384Z,12.63
2022-12-18T12:12:00.086Z,11.70
2022-12-18T12:14:30.243Z,11.05
2022-12-18T12:17:19.240Z,11.27
2022-12-18T12:20:17.430Z,12.68
2022-12-18T12:22:59.479Z,11.48
2022-12-18T12:26:33.692Z,13.20
2022-12-18T12:29:32.317Z,11.13
2022-12-18T12:32:39.820Z,10.85
2022-12-18T12:35:23.443Z,10.82
2022-12-18T12:38:29.603Z,11.07
2022-12-18T12:41:32.466Z,11.57
2022-12-18T12:44:06.201Z,11.57
2022-12-18T12:46:41.975Z,10.70
2022-12-18T12:49:28.142Z,10.60
2022-12-18T12:52:16.075Z,11.43
2022-12-18T12:54:45.775Z,11.52
2022-12-18T12:57:41.070Z,10.90
2022-12-18T13:00:20.193Z,10.40
2022-12-18T13:03:37.954Z,10.70
2022-12-18T13:06:44.675Z,11.95
2022-12-18T13:09:12.245Z,11.38
2022-12-18T13:12:03.235Z,11.90
2022-12-18T13:14:37.237Z,11.60
2022-12-18T13:17:21.048Z,12.00
2022-12-18T13:20:15.648Z,12.13
2022-12-18T13:22:50.740Z,11.00
2022-12-18T13:25:39.640Z,11.65
2022-12-18T13:28:47.798Z,19.05
2022-12-18T13:31:39.751Z,11.93
2022-12-18T13:34:27.802Z,10.70
2022-12-18T13:37:18.108Z,11.18
2022-12-18T13:39:45.378Z,11.93
2022-12-18T13:42:33.167Z,12.40
2022-12-18T13:45:01.304Z,12.02
2022-12-18T13:47:35.897Z,11.57
2022-12-18T13:52:40.980Z,13.18
2022-12-18T13:55:21.779Z,11.60
2022-12-18T13:57:49.439Z,13.25
2022-12-18T14:00:26.213Z,11.77
2022-12-18T14:02:53.577Z,12.10
2022-12-18T14:05:37.004Z,11.10
2022-12-18T14:10:49.770Z,11.60
2022-12-18T14:13:35.888Z,12.57
2022-12-18T14:16:06.814Z,12.30
2022-12-18T14:18:50.110Z,12.02
2022-12-18T14:21:28.743Z,14.80
2022-12-18T14:24:22.085Z,13.32
2022-12-18T14:26:51.475Z,12.52
2022-12-18T14:29:31.628Z,12.77
2022-12-18T14:32:18.340Z,12.27
2022-12-18T14:34:56.952Z,12.60
2022-12-18T14:37:28.116Z,12.80
2022-12-18T14:40:10.984Z,13.07
2022-12-18T14:42:38.898Z,12.48
2022-12-18T14:45:44.473Z,11.73
2022-12-18T14:48:25.664Z,12.68
2022-12-18T14:51:01.124Z,12.65
2022-12-18T14:53:52.063Z,12.77
2022-12-18T14:56:26.184Z,12.30
2022-12-18T14:58:59.052Z,12.43
2022-12-18T15:01:36.073Z,13.43
2022-12-18T15:04:06.420Z,12.13
2022-12-18T15:06:38.523Z,13.30
2022-12-18T15:09:24.292Z,13.52
2022-12-18T15:12:02.583Z,13.30
2022-12-18T15:14:42.601Z,13.10
2022-12-18T15:17:21.767Z,24.75
2022-12-18T15:19:54.399Z,15.32
2022-12-18T15:22:42.626Z,13.95
2022-12-18T15:25:38.263Z,13.27
2022-12-18T15:28:25.449Z,14.32
2022-12-18T15:31:13.289Z,14.30
2022-12-18T15:33:53.922Z,13.73
2022-12-18T15:36:26.280Z,15.32
2022-12-18T15:39:06.896Z,13.55
2022-12-18T15:41:37.695Z,14.35
2022-12-18T15:44:28.879Z,15.15
2022-12-18T15:46:57.939Z,14.85
2022-12-18T15:49:25.320Z,14.80
2022-12-18T15:52:02.659Z,14.65
2022-12-18T15:54:48.191Z,14.93
2022-12-18T15:57:27.759Z,17.15
2022-12-18T15:59:59.001Z,16.60
2022-12-18T16:02:27.338Z,15.60
2022-12-18T16:04:55.127Z,15.77
2022-12-18T16:07:24.664Z,15.50
2022-12-18T16:09:53.165Z,15.82
2022-12-18T16:12:26.414Z,15.82
2022-12-18T16:14:53.567Z,15.00
2022-12-18T16:17:20.965Z,16.50
2022-12-18T16:19:48.049Z,14.75
2022-12-18T16:22:25.674Z,15.63
2022-12-18T16:24:54.443Z,16.33
2022-12-18T16:27:23.469Z,16.80
2022-12-18T16:29:51.677Z,15.55
2022-12-18T16:32:25.459Z,16.40
2022-12-18T16:34:52.639Z,15.57
2022-12-18T16:37:19.985Z,16.80
2022-12-18T16:39:46.991Z,16.75
2022-12-18T16:42:21.052Z,17.75
2022-12-18T16:45:16.444Z,18.05
2022-12-18T16:50:12.028Z,17.95
2022-12-18T16:52:39.380Z,16.10
2022-12-18T16:55:07.225Z,15.55
2022-12-18T16:57:34.472Z,16.85
2022-12-18T17:00:05.617Z,16.55
2022-12-18T17:02:33.898Z,17.05
2022-12-18T17:05:01.331Z,20.15
2022-12-18T17:07:29.477Z,17.80
2022-12-18T17:09:57.891Z,17.23
2022-12-18T17:12:26.842Z,19.20
2022-12-18T17:14:53.911Z,18.20
2022-12-18T17:17:22.702Z,17.83
2022-12-18T17:19:52.787Z,17.83
2022-12-18T17:22:23.143Z,20.25
2022-12-18T17:24:50.258Z,22.17
2022-12-18T17:27:17.387Z,20.13
2022-12-18T17:29:47.822Z,19.70
2022-12-18T17:32:17.871Z,20.23
2022-12-18T17:34:46.675Z,20.65
2022-12-18T17:37:14.595Z,18.30
2022-12-18T17:39:42.167Z,17.40
2022-12-18T17:42:15.266Z,18.05
2022-12-18T17:44:44.742Z,18.17
2022-12-18T17:47:13.807Z,18.55
2022-12-18T17:49:40.977Z,18.55
2022-12-18T17:52:08.160Z,17.92
2022-12-18T17:54:39.310Z,18.58
2022-12-18T17:57:06.423Z,18.73
2022-12-18T17:59:33.430Z,17.33
2022-12-18T18:02:00.439Z,23.05
2022-12-18T18:04:29.999Z,73.43
2022-12-18T18:06:56.998Z,25.05
2022-12-18T18:09:25.033Z,20.75
2022-12-18T18:12:11.092Z,23.77
2022-12-18T18:14:41.376Z,19.90
2022-12-18T18:17:08.929Z,25.02
2022-12-18T18:19:36.273Z,19.02
2022-12-18T18:22:03.665Z,20.52
2022-12-18T18:24:34.312Z,21.00
2022-12-18T18:27:04.444Z,19.27
2022-12-18T18:29:31.598Z,20.17
2022-12-18T18:31:59.366Z,19.30
2022-12-18T18:34:29.537Z,19.92
2022-12-18T18:37:01.313Z,19.30
2022-12-18T18:39:29.675Z,18.75
2022-12-18T18:41:56.954Z,18.58
2022-12-18T18:44:26.103Z,17.88
2022-12-18T18:46:58.389Z,18.80
2022-12-18T18:49:28.025Z,20.02
2022-12-18T18:51:57.383Z,20.20
2022-12-18T18:54:25.606Z,19.55
2022-12-18T18:59:41.261Z,18.38
2022-12-18T19:02:14.345Z,18.65
2022-12-18T19:04:45.671Z,23.92
2022-12-18T19:07:24.063Z,22.55
2022-12-18T19:10:04.459Z,26.63
2022-12-18T19:15:19.312Z,22.15
2022-12-18T19:17:50.081Z,34.83
2022-12-18T19:20:21.437Z,24.45
2022-12-18T19:22:48.616Z,18.98
2022-12-18T19:25:37.147Z,18.83
2022-12-18T19:28:15.818Z,19.52
2022-12-18T19:30:48.836Z,18.77
2022-12-18T19:33:44.165Z,19.13
2022-12-18T19:36:22.489Z,17.92
2022-12-18T19:38:51.864Z,18.88
2022-12-18T19:41:20.663Z,18.88
2022-12-18T19:43:49.323Z,19.40
2022-12-18T19:46:20.760Z,19.50
2022-12-18T19:48:48.767Z,20.02
2022-12-18T19:51:22.314Z,19.60
2022-12-18T19:53:53.679Z,19.45
2022-12-18T19:56:28.867Z,20.88
2022-12-18T19:58:56.013Z,23.08
2022-12-18T20:01:25.716Z,70.97
2022-12-18T20:03:54.487Z,22.73
2022-12-18T20:06:36.914Z,29.52
2022-12-18T20:09:06.697Z,25.60
2022-12-18T20:11:41.530Z,25.65
2022-12-18T20:14:14.529Z,22.52
2022-12-18T20:16:48.279Z,22.63
2022-12-18T20:19:15.940Z,21.48
2022-12-18T20:21:44.363Z,21.33
2022-12-18T20:24:11.501Z,25.33
2022-12-18T20:26:39.003Z,26.20
2022-12-18T20:29:06.756Z,26.60
2022-12-18T20:31:34.008Z,25.90
2022-12-18T20:34:01.771Z,20.60
2022-12-18T20:36:30.889Z,23.02
2022-12-18T20:39:02.618Z,24.42
2022-12-18T20:41:38.186Z,21.73
2022-12-18T20:44:22.389Z,24.20
2022-12-18T20:49:26.725Z,24.25
2022-12-18T20:51:57.189Z,24.00
2022-12-18T20:54:30.115Z,26.17
2022-12-18T20:56:57.930Z,32.08
2022-12-18T20:59:26.127Z,26.80
2022-12-18T21:01:55.530Z,25.75
2022-12-18T21:04:24.108Z,24.10
2022-12-18T21:06:57.908Z,23.55
2022-12-18T21:09:35.919Z,24.35
2022-12-18T21:12:40.482Z,23.38
2022-12-18T21:15:11.373Z,24.08
2022-12-18T21:17:44.744Z,22.95
2022-12-18T21:20:17.505Z,24.17
2022-12-18T21:22:46.818Z,23.67
2022-12-18T21:25:14.989Z,22.60
2022-12-18T21:27:41.951Z,23.85
2022-12-18T21:30:09.891Z,23.55
2022-12-18T21:32:36.999Z,24.67
2022-12-18T21:35:04.447Z,25.48
2022-12-18T21:37:31.555Z,25.20
2022-12-18T21:39:58.564Z,24.67
2022-12-18T21:42:44.265Z,25.02
2022-12-18T21:45:12.301Z,25.35
2022-12-18T21:47:39.706Z,26.17
2022-12-18T21:50:07.223Z,24.95
2022-12-18T21:52:34.241Z,26.70
2022-12-18T21:55:08.904Z,26.35
2022-12-18T21:57:39.403Z,25.58
2022-12-18T22:00:17.381Z,25.98
2022-12-18T22:02:46.034Z,25.45
2022-12-18T22:05:13.232Z,25.88
2022-12-18T22:07:40.425Z,26.52
2022-12-18T22:10:08.235Z,26.75
2022-12-18T22:12:42.894Z,25.88
2022-12-18T22:15:21.248Z,25.98
2022-12-18T22:17:50.687Z,25.77
2022-12-18T22:20:20.182Z,26.27
2022-12-18T22:22:51.537Z,26.42
2022-12-18T22:25:19.072Z,26.33
2022-12-18T22:28:06.097Z,25.35
2022-12-18T22:30:33.168Z,26.17
2022-12-18T22:33:00.754Z,26.92
2022-12-18T22:35:27.905Z,26.55
2022-12-18T22:37:55.178Z,26.65
2022-12-18T22:40:26.984Z,26.73
2022-12-18T22:42:55.048Z,27.27
2022-12-18T22:45:22.063Z,26.13
2022-12-18T22:47:49.406Z,27.42
2022-12-18T22:50:16.458Z,26.38
2022-12-18T22:52:43.724Z,27.40
2022-12-18T22:55:11.826Z,25.70
2022-12-18T22:57:40.662Z,26.48
2022-12-18T23:00:14.263Z,25.73
2022-12-18T23:02:42.461Z,26.02
2022-12-18T23:05:09.628Z,26.13
2022-12-18T23:07:36.559Z,25.73
2022-12-18T23:10:03.972Z,25.70
2022-12-18T23:12:30.974Z,25.55
2022-12-18T23:14:59.873Z,26.13
2022-12-18T23:17:26.932Z,26.02
2022-12-18T23:19:53.852Z,26.95
2022-12-18T23:22:20.893Z,25.52
2022-12-18T23:24:47.918Z,25.70
2022-12-18T23:27:15.005Z,28.08
2022-12-18T23:29:41.969Z,26.10
2022-12-18T23:32:08.953Z,27.35
2022-12-18T23:34:35.985Z,28.67
2022-12-18T23:37:03.771Z,26.20
2022-12-18T23:39:31.017Z,26.58
2022-12-18T23:41:59.231Z,27.08
2022-12-18T23:44:26.459Z,27.13
2022-12-18T23:46:54.671Z,27.10
2022-12-18T23:49:22.270Z,27.20
2022-12-18T23:51:49.255Z,26.75
2022-12-18T23:54:16.364Z,26.60
2022-12-18T23:56:43.482Z,26.52
2022-12-18T23:59:16.277Z,26.30
